Flight Track Log - Related Links

Times and Time Zones

All times are in EDT time to prevent confusion due to time zone crossing. See the EGF3994 flight status page for this flight to view local times or setup timezone preferences in your user account.

Time Position Orientation Groundspeed Altitude Reporting Facility
EDT Latitude Longitude Course Direction KTS MPH feet Rate Location/Type
Fri 06:47:55 PM 41.9167 -87.9167 90° East 202 232 3,200  Level Chicago TRACON
Fri 06:48:56 PM 41.9167 -87.8333 90° East 252 290 5,400 2,331 Climbing Chicago TRACON
Fri 06:49:00 PM 41.9603 -87.4698 98° East  Level FlightAware Approximate
Fri 06:49:56 PM 41.9167 -87.7333 90° East 272 313 7,900  Level Chicago TRACON
Fri 06:50:00 PM 41.9472 -87.3273 95° East  Level FlightAware Approximate
Fri 06:51:00 PM 41.9370 -87.1845 95° East  Level FlightAware Approximate
Fri 06:51:02 PM 41.9167 -87.6000 90° East 302 348 10,300  Level Chicago TRACON
Fri 06:52:00 PM 41.9333 -87.0412 90° East  Level FlightAware Approximate
Fri 06:53:00 PM 41.9333 -86.9160 90° East  Level FlightAware Approximate
Fri 06:53:06 PM 41.9322 -87.3750 85° East 315 362 15,100  Level Chicago Center
Fri 06:54:08 PM 41.9372 -87.2564 87° East 317 365 16,000 919 Climbing Chicago Center
Fri 06:55:10 PM 41.9433 -87.0908 87° East 364 419 17,000 919 Climbing Chicago Center
Fri 06:56:12 PM 41.9475 -86.9444 88° East 384 442 17,900 1,065 Climbing Chicago Center
Fri 06:57:14 PM 41.9492 -86.7961 89° East 395 455 19,200 1,161 Climbing Chicago Center
Fri 06:58:16 PM 41.9500 -86.6367 90° East 410 472 20,300 1,065 Climbing Chicago Center
Fri 06:59:18 PM 41.9511 -86.4781 89° East 420 483 21,400 1,056 Climbing Chicago Center
Fri 07:00:21 PM 41.9483 -86.3153 91° East 436 502 22,500 768 Climbing Chicago Center
Fri 07:01:23 PM 41.9075 -86.1567 109° East 447 514 23,000 242 Climbing Chicago Center
Fri 07:02:25 PM 41.8678 -85.9925 108° East 462 532 23,000  Level Chicago Center
Fri 07:03:27 PM 41.8169 -85.7903 109° East 476 548 23,000  Level Chicago Center
Fri 07:04:29 PM 41.7733 -85.6211 109° East 479 551 23,000 -97 Level Chicago Center
Fri 07:05:31 PM 41.6692 -85.5236 145° Southeast 471 542 22,800 -435 Descending Chicago Center
Fri 07:06:33 PM 41.5539 -85.4656 159° South 468 539 22,100 -919 Descending Chicago Center
Fri 07:07:35 PM 41.4119 -85.3967 160° South 461 531 20,900 -1,016 Descending Chicago Center
Fri 07:08:37 PM 41.2975 -85.3414 160° South 447 514 20,000 -919 Descending Chicago Center
Fri 07:09:39 PM 41.1897 -85.2883 160° South 425 489 19,000 -919 Descending Chicago Center
Fri 07:10:41 PM 41.0828 -85.2361 160° South 413 475 18,100 -677 Descending Chicago Center
Fri 07:11:43 PM 40.9778 -85.1825 159° South 407 468 17,600 -823 Descending Chicago Center
Fri 07:12:45 PM 40.8919 -85.0417 129° Southeast 410 472 16,400 -1,113 Descending Chicago Center
Fri 07:13:47 PM 40.8225 -84.9244 128° Southeast 408 470 15,300 -683 Descending Chicago Center
Fri 07:14:48 PM 40.7539 -84.8097 128° Southeast 403 464 15,000 -146 Descending Chicago Center
Fri 07:15:50 PM 40.6833 -84.6936 129° Southeast 405 466 15,000  Level Chicago Center
Fri 07:16:52 PM 40.6128 -84.5756 128° Southeast 410 472 15,000 -309 Level Chicago Center
Fri 07:17:27 PM 40.5619 -84.4931 129° Southeast 410 472 14,500 -1,437 Descending Indianapolis Center
Fri 07:18:03 PM 40.5194 -84.4214 128° Southeast 405 466 13,300 -1,714 Descending Indianapolis Center
Fri 07:18:37 PM 40.4933 -84.3778 128° Southeast 394 453 12,500 -1,791 Descending Indianapolis Center
Fri 07:19:10 PM 40.4489 -84.3072 130° Southeast 375 432 11,300 -1,645 Descending Indianapolis Center
Fri 07:19:39 PM 40.4117 -84.2742 146° Southeast 345 397 10,800 -984 Descending Indianapolis Center
Fri 07:20:11 PM 40.3683 -84.2664 172° South 298 343 10,300 -1,161 Descending Indianapolis Center
Fri 07:20:41 PM 40.3294 -84.2619 175° South 296 341 9,600 -1,527 Descending Indianapolis Center
Fri 07:21:06 PM 40.2978 -84.2569 173° South 268 308 8,900 -1,645 Descending Indianapolis Center
Fri 07:21:43 PM 40.2531 -84.2517 175° South 279 321 7,900 -1,500 Descending Indianapolis Center
Fri 07:22:06 PM 40.2231 -84.2469 173° South 270 311 7,400 -984 Descending Indianapolis Center
Fri 07:22:44 PM 40.1800 -84.2389 172° South 268 308 6,900 -806 Descending Indianapolis Center
Fri 07:23:13 PM 40.1525 -84.2128 144° Southeast 227 261 6,500 -774 Descending Indianapolis Center
Fri 07:23:46 PM 40.1314 -84.1931 144° Southeast 226 260 6,100 -492 Descending Indianapolis Center
Fri 07:24:14 PM 40.1019 -84.1897 175° South 200 230 6,000 -214 Descending Indianapolis Center

Login

Don't have an account? Register now (free) for customized features, flight alerts, and more!